sensor_id;sensor_type;location;lat;lon;timestamp;P1;durP1;ratioP1;P2;durP2;ratioP2
33491;SDS011;20010;51.488;7.232;2022-08-19T00:01:48;11.60;;;10.82;;
33491;SDS011;20010;51.488;7.232;2022-08-19T00:04:20;13.35;;;12.38;;
33491;SDS011;20010;51.488;7.232;2022-08-19T00:06:48;13.00;;;11.90;;
33491;SDS011;20010;51.488;7.232;2022-08-19T00:09:16;12.88;;;11.77;;
33491;SDS011;20010;51.488;7.232;2022-08-19T00:11:45;11.80;;;11.00;;
33491;SDS011;20010;51.488;7.232;2022-08-19T00:14:14;11.20;;;10.50;;
33491;SDS011;20010;51.488;7.232;2022-08-19T00:16:44;11.75;;;10.85;;
33491;SDS011;20010;51.488;7.232;2022-08-19T00:21:41;12.25;;;11.30;;
33491;SDS011;20010;51.488;7.232;2022-08-19T00:24:10;12.95;;;11.93;;
33491;SDS011;20010;51.488;7.232;2022-08-19T00:26:38;12.63;;;11.68;;
33491;SDS011;20010;51.488;7.232;2022-08-19T00:29:06;12.38;;;11.43;;
33491;SDS011;20010;51.488;7.232;2022-08-19T00:31:35;11.98;;;11.27;;
33491;SDS011;20010;51.488;7.232;2022-08-19T00:34:02;12.35;;;11.55;;
33491;SDS011;20010;51.488;7.232;2022-08-19T00:36:29;12.55;;;11.65;;
33491;SDS011;20010;51.488;7.232;2022-08-19T00:38:57;11.65;;;10.95;;
33491;SDS011;20010;51.488;7.232;2022-08-19T00:41:25;12.25;;;11.38;;
33491;SDS011;20010;51.488;7.232;2022-08-19T00:44:00;12.52;;;11.48;;
33491;SDS011;20010;51.488;7.232;2022-08-19T00:46:32;11.93;;;11.23;;
33491;SDS011;20010;51.488;7.232;2022-08-19T00:49:15;11.90;;;11.13;;
33491;SDS011;20010;51.488;7.232;2022-08-19T00:51:51;12.30;;;11.60;;
33491;SDS011;20010;51.488;7.232;2022-08-19T00:54:21;12.30;;;11.50;;
33491;SDS011;20010;51.488;7.232;2022-08-19T00:56:56;13.43;;;12.25;;
33491;SDS011;20010;51.488;7.232;2022-08-19T00:59:26;12.63;;;11.93;;
33491;SDS011;20010;51.488;7.232;2022-08-19T01:02:15;11.85;;;11.10;;
33491;SDS011;20010;51.488;7.232;2022-08-19T01:04:42;12.20;;;11.43;;
33491;SDS011;20010;51.488;7.232;2022-08-19T01:07:09;13.32;;;12.18;;
33491;SDS011;20010;51.488;7.232;2022-08-19T01:09:42;12.50;;;11.50;;
33491;SDS011;20010;51.488;7.232;2022-08-19T01:12:09;12.38;;;11.63;;
33491;SDS011;20010;51.488;7.232;2022-08-19T01:14:36;12.32;;;11.38;;
33491;SDS011;20010;51.488;7.232;2022-08-19T01:17:07;12.50;;;11.70;;
33491;SDS011;20010;51.488;7.232;2022-08-19T01:19:37;12.90;;;11.82;;
33491;SDS011;20010;51.488;7.232;2022-08-19T01:24:59;14.77;;;13.40;;
33491;SDS011;20010;51.488;7.232;2022-08-19T01:27:27;13.77;;;12.77;;
33491;SDS011;20010;51.488;7.232;2022-08-19T01:30:10;14.27;;;13.18;;
33491;SDS011;20010;51.488;7.232;2022-08-19T01:32:38;14.97;;;13.83;;
33491;SDS011;20010;51.488;7.232;2022-08-19T01:35:06;14.75;;;13.75;;
33491;SDS011;20010;51.488;7.232;2022-08-19T01:37:43;14.55;;;13.55;;
33491;SDS011;20010;51.488;7.232;2022-08-19T01:40:15;14.27;;;13.25;;
33491;SDS011;20010;51.488;7.232;2022-08-19T01:42:43;13.88;;;12.70;;
33491;SDS011;20010;51.488;7.232;2022-08-19T01:45:10;15.50;;;14.40;;
33491;SDS011;20010;51.488;7.232;2022-08-19T01:47:36;14.80;;;13.75;;
33491;SDS011;20010;51.488;7.232;2022-08-19T01:50:05;14.13;;;13.23;;
33491;SDS011;20010;51.488;7.232;2022-08-19T01:52:37;14.70;;;13.67;;
33491;SDS011;20010;51.488;7.232;2022-08-19T01:55:07;15.18;;;14.07;;
33491;SDS011;20010;51.488;7.232;2022-08-19T01:57:36;14.52;;;13.40;;
33491;SDS011;20010;51.488;7.232;2022-08-19T02:00:07;15.35;;;13.93;;
33491;SDS011;20010;51.488;7.232;2022-08-19T02:02:37;15.82;;;14.63;;
33491;SDS011;20010;51.488;7.232;2022-08-19T02:05:05;14.85;;;13.80;;
33491;SDS011;20010;51.488;7.232;2022-08-19T02:07:36;15.55;;;14.38;;
33491;SDS011;20010;51.488;7.232;2022-08-19T02:10:07;15.80;;;14.57;;
33491;SDS011;20010;51.488;7.232;2022-08-19T02:12:38;15.90;;;14.88;;
33491;SDS011;20010;51.488;7.232;2022-08-19T02:15:06;16.45;;;15.05;;
33491;SDS011;20010;51.488;7.232;2022-08-19T02:17:33;15.98;;;14.75;;
33491;SDS011;20010;51.488;7.232;2022-08-19T02:20:00;16.30;;;15.00;;
33491;SDS011;20010;51.488;7.232;2022-08-19T02:22:27;16.05;;;14.77;;
33491;SDS011;20010;51.488;7.232;2022-08-19T02:24:54;16.17;;;15.02;;
33491;SDS011;20010;51.488;7.232;2022-08-19T02:27:22;15.75;;;14.48;;
33491;SDS011;20010;51.488;7.232;2022-08-19T02:29:50;16.73;;;15.05;;
33491;SDS011;20010;51.488;7.232;2022-08-19T02:32:17;16.23;;;14.98;;
33491;SDS011;20010;51.488;7.232;2022-08-19T02:34:46;16.65;;;15.35;;
33491;SDS011;20010;51.488;7.232;2022-08-19T02:43:26;17.95;;;16.33;;
33491;SDS011;20010;51.488;7.232;2022-08-19T02:46:00;17.48;;;16.17;;
33491;SDS011;20010;51.488;7.232;2022-08-19T02:48:27;17.85;;;16.45;;
33491;SDS011;20010;51.488;7.232;2022-08-19T02:50:54;18.38;;;16.63;;
33491;SDS011;20010;51.488;7.232;2022-08-19T02:53:22;18.20;;;16.52;;
33491;SDS011;20010;51.488;7.232;2022-08-19T02:55:50;16.63;;;15.32;;
33491;SDS011;20010;51.488;7.232;2022-08-19T02:58:18;16.70;;;15.50;;
33491;SDS011;20010;51.488;7.232;2022-08-19T03:00:47;16.73;;;15.43;;
33491;SDS011;20010;51.488;7.232;2022-08-19T03:03:16;18.52;;;17.13;;
33491;SDS011;20010;51.488;7.232;2022-08-19T03:05:45;18.23;;;16.75;;
33491;SDS011;20010;51.488;7.232;2022-08-19T03:08:21;17.13;;;15.70;;
33491;SDS011;20010;51.488;7.232;2022-08-19T03:10:48;16.88;;;15.55;;
33491;SDS011;20010;51.488;7.232;2022-08-19T03:13:16;17.40;;;16.00;;
33491;SDS011;20010;51.488;7.232;2022-08-19T03:15:46;17.27;;;15.88;;
33491;SDS011;20010;51.488;7.232;2022-08-19T03:18:14;16.67;;;15.35;;
33491;SDS011;20010;51.488;7.232;2022-08-19T03:20:47;16.08;;;14.88;;
33491;SDS011;20010;51.488;7.232;2022-08-19T03:23:16;16.85;;;15.45;;
33491;SDS011;20010;51.488;7.232;2022-08-19T03:25:48;16.55;;;15.45;;
33491;SDS011;20010;51.488;7.232;2022-08-19T03:28:28;16.38;;;15.27;;
33491;SDS011;20010;51.488;7.232;2022-08-19T03:30:59;17.58;;;16.00;;
33491;SDS011;20010;51.488;7.232;2022-08-19T03:33:30;17.05;;;15.48;;
33491;SDS011;20010;51.488;7.232;2022-08-19T03:38:35;16.15;;;14.93;;
33491;SDS011;20010;51.488;7.232;2022-08-19T03:41:08;16.40;;;15.10;;
33491;SDS011;20010;51.488;7.232;2022-08-19T03:43:37;17.05;;;15.50;;
33491;SDS011;20010;51.488;7.232;2022-08-19T03:46:10;16.23;;;15.13;;
33491;SDS011;20010;51.488;7.232;2022-08-19T03:48:39;15.43;;;14.32;;
33491;SDS011;20010;51.488;7.232;2022-08-19T03:51:14;17.23;;;15.90;;
33491;SDS011;20010;51.488;7.232;2022-08-19T03:53:56;16.38;;;14.95;;
33491;SDS011;20010;51.488;7.232;2022-08-19T03:56:25;15.88;;;14.77;;
33491;SDS011;20010;51.488;7.232;2022-08-19T03:58:54;16.40;;;15.07;;
33491;SDS011;20010;51.488;7.232;2022-08-19T04:01:24;16.23;;;14.82;;
33491;SDS011;20010;51.488;7.232;2022-08-19T04:04:00;16.85;;;15.65;;
33491;SDS011;20010;51.488;7.232;2022-08-19T04:06:31;17.02;;;15.57;;
33491;SDS011;20010;51.488;7.232;2022-08-19T04:08:59;15.88;;;14.68;;
33491;SDS011;20010;51.488;7.232;2022-08-19T04:11:29;17.42;;;16.05;;
33491;SDS011;20010;51.488;7.232;2022-08-19T04:14:14;17.75;;;16.38;;
33491;SDS011;20010;51.488;7.232;2022-08-19T04:16:44;17.25;;;15.90;;
33491;SDS011;20010;51.488;7.232;2022-08-19T04:19:12;19.23;;;17.25;;
33491;SDS011;20010;51.488;7.232;2022-08-19T04:21:42;18.67;;;17.08;;
33491;SDS011;20010;51.488;7.232;2022-08-19T04:24:11;18.65;;;17.17;;
33491;SDS011;20010;51.488;7.232;2022-08-19T04:26:39;17.80;;;16.38;;
33491;SDS011;20010;51.488;7.232;2022-08-19T04:29:09;18.77;;;17.08;;
33491;SDS011;20010;51.488;7.232;2022-08-19T04:34:07;17.92;;;16.40;;
33491;SDS011;20010;51.488;7.232;2022-08-19T04:36:37;17.40;;;16.08;;
33491;SDS011;20010;51.488;7.232;2022-08-19T04:39:08;17.00;;;15.48;;
33491;SDS011;20010;51.488;7.232;2022-08-19T04:41:43;16.67;;;15.48;;
33491;SDS011;20010;51.488;7.232;2022-08-19T04:44:30;17.88;;;16.27;;
33491;SDS011;20010;51.488;7.232;2022-08-19T04:47:01;17.55;;;16.15;;
33491;SDS011;20010;51.488;7.232;2022-08-19T04:49:36;18.25;;;16.65;;
33491;SDS011;20010;51.488;7.232;2022-08-19T04:52:03;18.17;;;16.77;;
33491;SDS011;20010;51.488;7.232;2022-08-19T04:54:30;17.17;;;15.82;;
33491;SDS011;20010;51.488;7.232;2022-08-19T04:57:04;17.42;;;15.75;;
33491;SDS011;20010;51.488;7.232;2022-08-19T04:59:34;18.83;;;17.17;;
33491;SDS011;20010;51.488;7.232;2022-08-19T05:02:01;17.90;;;16.42;;
33491;SDS011;20010;51.488;7.232;2022-08-19T05:04:29;19.67;;;17.88;;
33491;SDS011;20010;51.488;7.232;2022-08-19T05:06:58;18.02;;;16.23;;
33491;SDS011;20010;51.488;7.232;2022-08-19T05:09:28;17.55;;;16.10;;
33491;SDS011;20010;51.488;7.232;2022-08-19T05:12:15;19.02;;;17.27;;
33491;SDS011;20010;51.488;7.232;2022-08-19T05:14:43;20.13;;;18.27;;
33491;SDS011;20010;51.488;7.232;2022-08-19T05:17:14;19.83;;;17.90;;
33491;SDS011;20010;51.488;7.232;2022-08-19T05:19:53;19.00;;;17.37;;
33491;SDS011;20010;51.488;7.232;2022-08-19T05:22:40;18.10;;;16.80;;
33491;SDS011;20010;51.488;7.232;2022-08-19T05:25:09;18.75;;;17.15;;
33491;SDS011;20010;51.488;7.232;2022-08-19T05:27:39;18.30;;;16.60;;
33491;SDS011;20010;51.488;7.232;2022-08-19T05:30:08;20.50;;;18.85;;
33491;SDS011;20010;51.488;7.232;2022-08-19T05:32:36;19.02;;;17.13;;
33491;SDS011;20010;51.488;7.232;2022-08-19T05:35:03;24.65;;;22.25;;
33491;SDS011;20010;51.488;7.232;2022-08-19T05:37:31;20.27;;;18.67;;
33491;SDS011;20010;51.488;7.232;2022-08-19T05:39:58;20.83;;;19.13;;
33491;SDS011;20010;51.488;7.232;2022-08-19T05:42:25;20.65;;;18.63;;
33491;SDS011;20010;51.488;7.232;2022-08-19T05:44:53;19.98;;;17.90;;
33491;SDS011;20010;51.488;7.232;2022-08-19T05:47:20;19.17;;;17.52;;
33491;SDS011;20010;51.488;7.232;2022-08-19T05:49:47;21.48;;;19.50;;
33491;SDS011;20010;51.488;7.232;2022-08-19T05:52:16;21.35;;;19.20;;
33491;SDS011;20010;51.488;7.232;2022-08-19T05:54:45;20.92;;;19.00;;
33491;SDS011;20010;51.488;7.232;2022-08-19T05:57:17;21.17;;;19.17;;
33491;SDS011;20010;51.488;7.232;2022-08-19T05:59:44;22.30;;;20.02;;
33491;SDS011;20010;51.488;7.232;2022-08-19T06:02:18;24.55;;;22.02;;
33491;SDS011;20010;51.488;7.232;2022-08-19T06:04:45;24.23;;;21.90;;
33491;SDS011;20010;51.488;7.232;2022-08-19T06:07:12;24.15;;;21.85;;
33491;SDS011;20010;51.488;7.232;2022-08-19T06:09:39;24.63;;;22.17;;
33491;SDS011;20010;51.488;7.232;2022-08-19T06:12:24;22.42;;;20.40;;
33491;SDS011;20010;51.488;7.232;2022-08-19T06:14:55;22.65;;;20.58;;
33491;SDS011;20010;51.488;7.232;2022-08-19T06:17:27;23.30;;;21.23;;
33491;SDS011;20010;51.488;7.232;2022-08-19T06:19:57;23.77;;;21.13;;
33491;SDS011;20010;51.488;7.232;2022-08-19T06:22:24;22.55;;;20.55;;
33491;SDS011;20010;51.488;7.232;2022-08-19T06:24:52;25.98;;;23.25;;
33491;SDS011;20010;51.488;7.232;2022-08-19T06:27:20;23.77;;;21.70;;
33491;SDS011;20010;51.488;7.232;2022-08-19T06:29:47;23.85;;;21.55;;
33491;SDS011;20010;51.488;7.232;2022-08-19T06:32:15;25.23;;;22.90;;
33491;SDS011;20010;51.488;7.232;2022-08-19T06:34:44;24.85;;;22.38;;
33491;SDS011;20010;51.488;7.232;2022-08-19T06:37:11;24.30;;;22.25;;
33491;SDS011;20010;51.488;7.232;2022-08-19T06:39:39;24.38;;;22.00;;
33491;SDS011;20010;51.488;7.232;2022-08-19T06:42:08;23.90;;;21.80;;
33491;SDS011;20010;51.488;7.232;2022-08-19T06:44:38;25.03;;;22.47;;
33491;SDS011;20010;51.488;7.232;2022-08-19T06:47:09;23.30;;;21.15;;
33491;SDS011;20010;51.488;7.232;2022-08-19T06:49:40;22.98;;;20.88;;
33491;SDS011;20010;51.488;7.232;2022-08-19T06:52:10;21.52;;;19.50;;
33491;SDS011;20010;51.488;7.232;2022-08-19T06:57:22;23.08;;;20.65;;
33491;SDS011;20010;51.488;7.232;2022-08-19T06:59:50;23.88;;;21.60;;
33491;SDS011;20010;51.488;7.232;2022-08-19T07:02:18;23.35;;;21.13;;
33491;SDS011;20010;51.488;7.232;2022-08-19T07:04:46;21.77;;;19.80;;
33491;SDS011;20010;51.488;7.232;2022-08-19T07:07:18;23.95;;;21.83;;
33491;SDS011;20010;51.488;7.232;2022-08-19T07:09:47;22.73;;;20.65;;
33491;SDS011;20010;51.488;7.232;2022-08-19T07:12:27;23.83;;;21.70;;
33491;SDS011;20010;51.488;7.232;2022-08-19T07:14:56;24.65;;;22.35;;
33491;SDS011;20010;51.488;7.232;2022-08-19T07:17:24;24.63;;;22.52;;
33491;SDS011;20010;51.488;7.232;2022-08-19T07:19:52;22.55;;;20.33;;
33491;SDS011;20010;51.488;7.232;2022-08-19T07:22:20;22.48;;;20.27;;
33491;SDS011;20010;51.488;7.232;2022-08-19T07:24:50;23.67;;;21.25;;
33491;SDS011;20010;51.488;7.232;2022-08-19T07:27:17;24.08;;;21.60;;
33491;SDS011;20010;51.488;7.232;2022-08-19T07:29:50;22.50;;;20.45;;
33491;SDS011;20010;51.488;7.232;2022-08-19T07:32:22;23.02;;;20.70;;
33491;SDS011;20010;51.488;7.232;2022-08-19T07:34:52;22.63;;;20.50;;
33491;SDS011;20010;51.488;7.232;2022-08-19T07:37:20;22.02;;;19.98;;
33491;SDS011;20010;51.488;7.232;2022-08-19T07:39:47;19.75;;;18.08;;
33491;SDS011;20010;51.488;7.232;2022-08-19T07:42:14;21.25;;;19.40;;
33491;SDS011;20010;51.488;7.232;2022-08-19T07:44:41;26.08;;;20.10;;
33491;SDS011;20010;51.488;7.232;2022-08-19T07:47:16;22.77;;;20.63;;
33491;SDS011;20010;51.488;7.232;2022-08-19T07:50:05;22.40;;;20.30;;
33491;SDS011;20010;51.488;7.232;2022-08-19T07:52:33;20.40;;;18.47;;
33491;SDS011;20010;51.488;7.232;2022-08-19T07:55:02;19.63;;;17.70;;
33491;SDS011;20010;51.488;7.232;2022-08-19T07:57:30;21.52;;;19.33;;
33491;SDS011;20010;51.488;7.232;2022-08-19T07:59:58;20.80;;;18.40;;
33491;SDS011;20010;51.488;7.232;2022-08-19T08:02:24;21.40;;;18.55;;
33491;SDS011;20010;51.488;7.232;2022-08-19T08:04:51;21.45;;;19.48;;
33491;SDS011;20010;51.488;7.232;2022-08-19T08:07:38;21.05;;;18.92;;
33491;SDS011;20010;51.488;7.232;2022-08-19T08:10:24;21.60;;;19.60;;
33491;SDS011;20010;51.488;7.232;2022-08-19T08:12:51;24.13;;;21.17;;
33491;SDS011;20010;51.488;7.232;2022-08-19T08:15:35;25.38;;;22.92;;
33491;SDS011;20010;51.488;7.232;2022-08-19T08:18:08;24.30;;;22.00;;
33491;SDS011;20010;51.488;7.232;2022-08-19T08:20:37;25.75;;;23.27;;
33491;SDS011;20010;51.488;7.232;2022-08-19T08:23:04;25.67;;;23.38;;
33491;SDS011;20010;51.488;7.232;2022-08-19T08:25:52;23.92;;;21.80;;
33491;SDS011;20010;51.488;7.232;2022-08-19T08:28:21;24.23;;;21.92;;
33491;SDS011;20010;51.488;7.232;2022-08-19T08:30:48;24.48;;;22.23;;
33491;SDS011;20010;51.488;7.232;2022-08-19T08:33:18;25.85;;;23.60;;
33491;SDS011;20010;51.488;7.232;2022-08-19T08:35:59;25.50;;;23.08;;
33491;SDS011;20010;51.488;7.232;2022-08-19T08:38:30;28.33;;;25.87;;
33491;SDS011;20010;51.488;7.232;2022-08-19T08:43:52;27.60;;;24.98;;
33491;SDS011;20010;51.488;7.232;2022-08-19T08:54:37;28.15;;;25.42;;
33491;SDS011;20010;51.488;7.232;2022-08-19T09:00:25;29.52;;;26.63;;
33491;SDS011;20010;51.488;7.232;2022-08-19T09:02:56;31.48;;;28.70;;
33491;SDS011;20010;51.488;7.232;2022-08-19T09:05:36;30.90;;;27.95;;
33491;SDS011;20010;51.488;7.232;2022-08-19T09:10:59;31.73;;;28.70;;
33491;SDS011;20010;51.488;7.232;2022-08-19T09:13:33;30.13;;;27.23;;
33491;SDS011;20010;51.488;7.232;2022-08-19T09:16:57;37.67;;;34.17;;
33491;SDS011;20010;51.488;7.232;2022-08-19T09:19:24;39.10;;;34.10;;
33491;SDS011;20010;51.488;7.232;2022-08-19T09:21:54;42.92;;;38.90;;
33491;SDS011;20010;51.488;7.232;2022-08-19T09:24:22;38.08;;;34.72;;
33491;SDS011;20010;51.488;7.232;2022-08-19T09:26:56;39.53;;;35.80;;
33491;SDS011;20010;51.488;7.232;2022-08-19T09:29:23;39.15;;;35.38;;
33491;SDS011;20010;51.488;7.232;2022-08-19T09:31:50;40.38;;;36.33;;
33491;SDS011;20010;51.488;7.232;2022-08-19T09:34:17;38.47;;;34.72;;
33491;SDS011;20010;51.488;7.232;2022-08-19T09:36:47;36.20;;;32.75;;
33491;SDS011;20010;51.488;7.232;2022-08-19T09:39:20;33.03;;;30.15;;
33491;SDS011;20010;51.488;7.232;2022-08-19T09:41:47;32.10;;;29.23;;
33491;SDS011;20010;51.488;7.232;2022-08-19T09:44:16;27.80;;;25.40;;
33491;SDS011;20010;51.488;7.232;2022-08-19T09:46:44;25.80;;;23.48;;
33491;SDS011;20010;51.488;7.232;2022-08-19T09:49:14;24.52;;;22.38;;
33491;SDS011;20010;51.488;7.232;2022-08-19T09:51:43;31.90;;;28.98;;
33491;SDS011;20010;51.488;7.232;2022-08-19T09:54:16;34.28;;;30.98;;
33491;SDS011;20010;51.488;7.232;2022-08-19T09:56:50;33.28;;;30.25;;
33491;SDS011;20010;51.488;7.232;2022-08-19T09:59:17;31.48;;;28.50;;
33491;SDS011;20010;51.488;7.232;2022-08-19T10:01:44;29.20;;;26.60;;
33491;SDS011;20010;51.488;7.232;2022-08-19T10:04:11;32.78;;;29.88;;
33491;SDS011;20010;51.488;7.232;2022-08-19T10:06:46;28.63;;;25.98;;
33491;SDS011;20010;51.488;7.232;2022-08-19T10:09:19;28.50;;;25.85;;
33491;SDS011;20010;51.488;7.232;2022-08-19T10:12:00;24.85;;;22.55;;
33491;SDS011;20010;51.488;7.232;2022-08-19T10:14:29;25.77;;;23.48;;
33491;SDS011;20010;51.488;7.232;2022-08-19T10:16:56;22.80;;;21.00;;
33491;SDS011;20010;51.488;7.232;2022-08-19T10:19:24;22.33;;;20.35;;
33491;SDS011;20010;51.488;7.232;2022-08-19T10:21:52;18.98;;;17.33;;
33491;SDS011;20010;51.488;7.232;2022-08-19T10:24:25;21.75;;;19.40;;
33491;SDS011;20010;51.488;7.232;2022-08-19T10:26:53;18.95;;;17.17;;
33491;SDS011;20010;51.488;7.232;2022-08-19T10:29:24;20.75;;;18.90;;
33491;SDS011;20010;51.488;7.232;2022-08-19T10:32:02;20.83;;;19.13;;
33491;SDS011;20010;51.488;7.232;2022-08-19T10:34:36;17.70;;;16.20;;
33491;SDS011;20010;51.488;7.232;2022-08-19T10:37:14;17.45;;;16.05;;
33491;SDS011;20010;51.488;7.232;2022-08-19T10:39:49;19.23;;;17.55;;
33491;SDS011;20010;51.488;7.232;2022-08-19T10:42:17;17.50;;;16.10;;
33491;SDS011;20010;51.488;7.232;2022-08-19T10:44:45;17.25;;;15.75;;
33491;SDS011;20010;51.488;7.232;2022-08-19T10:47:17;17.70;;;15.43;;
33491;SDS011;20010;51.488;7.232;2022-08-19T10:49:51;18.23;;;15.43;;
33491;SDS011;20010;51.488;7.232;2022-08-19T10:52:42;17.05;;;15.45;;
33491;SDS011;20010;51.488;7.232;2022-08-19T10:55:16;17.95;;;16.48;;
33491;SDS011;20010;51.488;7.232;2022-08-19T10:58:04;16.88;;;15.57;;
33491;SDS011;20010;51.488;7.232;2022-08-19T11:00:40;18.17;;;16.90;;
33491;SDS011;20010;51.488;7.232;2022-08-19T11:03:08;18.65;;;17.20;;
33491;SDS011;20010;51.488;7.232;2022-08-19T11:05:35;17.33;;;15.75;;
33491;SDS011;20010;51.488;7.232;2022-08-19T11:08:05;24.17;;;22.00;;
33491;SDS011;20010;51.488;7.232;2022-08-19T11:10:49;24.75;;;22.73;;
33491;SDS011;20010;51.488;7.232;2022-08-19T11:13:17;21.77;;;19.90;;
33491;SDS011;20010;51.488;7.232;2022-08-19T11:15:44;23.60;;;21.80;;
33491;SDS011;20010;51.488;7.232;2022-08-19T11:18:13;22.05;;;20.40;;
33491;SDS011;20010;51.488;7.232;2022-08-19T11:20:40;24.30;;;22.40;;
33491;SDS011;20010;51.488;7.232;2022-08-19T11:23:07;27.85;;;25.58;;
33491;SDS011;20010;51.488;7.232;2022-08-19T11:25:34;27.83;;;25.60;;
33491;SDS011;20010;51.488;7.232;2022-08-19T11:28:04;25.40;;;23.30;;
33491;SDS011;20010;51.488;7.232;2022-08-19T11:30:31;25.65;;;23.33;;
33491;SDS011;20010;51.488;7.232;2022-08-19T11:32:58;27.65;;;25.15;;
33491;SDS011;20010;51.488;7.232;2022-08-19T11:35:26;23.77;;;21.85;;
33491;SDS011;20010;51.488;7.232;2022-08-19T11:37:54;24.08;;;22.10;;
33491;SDS011;20010;51.488;7.232;2022-08-19T11:40:22;27.88;;;25.52;;
33491;SDS011;20010;51.488;7.232;2022-08-19T11:42:49;24.60;;;22.40;;
33491;SDS011;20010;51.488;7.232;2022-08-19T11:45:26;23.67;;;21.67;;
33491;SDS011;20010;51.488;7.232;2022-08-19T11:47:54;23.55;;;21.58;;
33491;SDS011;20010;51.488;7.232;2022-08-19T11:50:22;19.95;;;18.65;;
33491;SDS011;20010;51.488;7.232;2022-08-19T11:52:49;23.88;;;21.98;;
33491;SDS011;20010;51.488;7.232;2022-08-19T11:55:20;22.30;;;20.30;;
33491;SDS011;20010;51.488;7.232;2022-08-19T11:57:48;21.85;;;19.95;;
33491;SDS011;20010;51.488;7.232;2022-08-19T12:00:15;21.33;;;19.52;;
33491;SDS011;20010;51.488;7.232;2022-08-19T12:02:42;21.00;;;19.40;;
33491;SDS011;20010;51.488;7.232;2022-08-19T12:05:09;18.75;;;17.33;;
33491;SDS011;20010;51.488;7.232;2022-08-19T12:07:38;21.15;;;19.25;;
33491;SDS011;20010;51.488;7.232;2022-08-19T12:10:09;19.75;;;17.98;;
33491;SDS011;20010;51.488;7.232;2022-08-19T12:12:37;18.88;;;17.27;;
33491;SDS011;20010;51.488;7.232;2022-08-19T12:15:09;16.73;;;15.38;;
33491;SDS011;20010;51.488;7.232;2022-08-19T12:17:37;16.98;;;15.75;;
33491;SDS011;20010;51.488;7.232;2022-08-19T12:20:04;18.92;;;17.42;;
33491;SDS011;20010;51.488;7.232;2022-08-19T12:22:33;17.13;;;15.77;;
33491;SDS011;20010;51.488;7.232;2022-08-19T12:25:01;19.05;;;17.65;;
33491;SDS011;20010;51.488;7.232;2022-08-19T12:27:28;18.73;;;16.90;;
33491;SDS011;20010;51.488;7.232;2022-08-19T12:30:08;15.43;;;14.32;;
33491;SDS011;20010;51.488;7.232;2022-08-19T12:35:04;16.00;;;14.70;;
33491;SDS011;20010;51.488;7.232;2022-08-19T12:37:32;15.90;;;14.73;;
33491;SDS011;20010;51.488;7.232;2022-08-19T12:39:59;13.88;;;12.98;;
33491;SDS011;20010;51.488;7.232;2022-08-19T12:42:27;13.15;;;12.20;;
33491;SDS011;20010;51.488;7.232;2022-08-19T12:44:54;13.45;;;12.18;;
33491;SDS011;20010;51.488;7.232;2022-08-19T12:47:21;12.85;;;11.88;;
33491;SDS011;20010;51.488;7.232;2022-08-19T12:49:48;13.15;;;12.15;;
33491;SDS011;20010;51.488;7.232;2022-08-19T12:52:20;11.93;;;10.93;;
33491;SDS011;20010;51.488;7.232;2022-08-19T12:54:52;12.30;;;11.52;;
33491;SDS011;20010;51.488;7.232;2022-08-19T12:57:25;11.65;;;10.75;;
33491;SDS011;20010;51.488;7.232;2022-08-19T13:02:54;11.55;;;10.52;;
33491;SDS011;20010;51.488;7.232;2022-08-19T13:05:22;11.45;;;10.55;;
33491;SDS011;20010;51.488;7.232;2022-08-19T13:07:52;12.80;;;11.57;;
33491;SDS011;20010;51.488;7.232;2022-08-19T13:10:22;11.52;;;10.73;;
33491;SDS011;20010;51.488;7.232;2022-08-19T13:12:53;10.77;;;10.10;;
33491;SDS011;20010;51.488;7.232;2022-08-19T13:15:22;14.98;;;10.63;;
33491;SDS011;20010;51.488;7.232;2022-08-19T13:17:50;12.50;;;11.38;;
33491;SDS011;20010;51.488;7.232;2022-08-19T13:22:56;11.10;;;10.40;;
33491;SDS011;20010;51.488;7.232;2022-08-19T13:29:14;11.52;;;10.73;;
33491;SDS011;20010;51.488;7.232;2022-08-19T13:32:00;11.48;;;10.50;;
33491;SDS011;20010;51.488;7.232;2022-08-19T13:34:45;11.48;;;10.77;;
33491;SDS011;20010;51.488;7.232;2022-08-19T13:37:12;11.10;;;10.27;;
33491;SDS011;20010;51.488;7.232;2022-08-19T13:39:39;10.73;;;9.75;;
33491;SDS011;20010;51.488;7.232;2022-08-19T13:42:06;11.45;;;10.35;;
33491;SDS011;20010;51.488;7.232;2022-08-19T13:44:35;11.60;;;10.70;;
33491;SDS011;20010;51.488;7.232;2022-08-19T13:47:03;10.23;;;9.48;;
33491;SDS011;20010;51.488;7.232;2022-08-19T13:49:34;11.43;;;10.57;;
33491;SDS011;20010;51.488;7.232;2022-08-19T13:52:03;10.40;;;9.52;;
33491;SDS011;20010;51.488;7.232;2022-08-19T13:54:31;11.48;;;10.55;;
33491;SDS011;20010;51.488;7.232;2022-08-19T13:56:58;10.52;;;9.93;;
33491;SDS011;20010;51.488;7.232;2022-08-19T13:59:25;9.45;;;8.88;;
33491;SDS011;20010;51.488;7.232;2022-08-19T14:01:57;10.10;;;9.45;;
33491;SDS011;20010;51.488;7.232;2022-08-19T14:04:25;10.75;;;9.93;;
33491;SDS011;20010;51.488;7.232;2022-08-19T14:06:52;9.90;;;9.20;;
33491;SDS011;20010;51.488;7.232;2022-08-19T14:09:19;9.40;;;8.70;;
33491;SDS011;20010;51.488;7.232;2022-08-19T14:11:46;9.70;;;9.00;;
33491;SDS011;20010;51.488;7.232;2022-08-19T14:14:13;9.90;;;9.25;;
33491;SDS011;20010;51.488;7.232;2022-08-19T14:16:41;8.75;;;8.20;;
33491;SDS011;20010;51.488;7.232;2022-08-19T14:19:08;11.75;;;10.65;;
33491;SDS011;20010;51.488;7.232;2022-08-19T14:21:35;10.52;;;9.80;;
33491;SDS011;20010;51.488;7.232;2022-08-19T14:24:07;9.90;;;9.25;;
33491;SDS011;20010;51.488;7.232;2022-08-19T14:26:34;10.15;;;9.27;;
33491;SDS011;20010;51.488;7.232;2022-08-19T14:29:01;9.93;;;8.95;;
33491;SDS011;20010;51.488;7.232;2022-08-19T14:31:28;8.98;;;8.23;;
33491;SDS011;20010;51.488;7.232;2022-08-19T14:33:56;10.00;;;9.20;;
33491;SDS011;20010;51.488;7.232;2022-08-19T14:36:23;9.73;;;9.02;;
33491;SDS011;20010;51.488;7.232;2022-08-19T14:38:50;9.63;;;8.90;;
33491;SDS011;20010;51.488;7.232;2022-08-19T14:41:21;9.27;;;8.57;;
33491;SDS011;20010;51.488;7.232;2022-08-19T14:43:50;9.00;;;8.40;;
33491;SDS011;20010;51.488;7.232;2022-08-19T14:46:22;8.32;;;7.82;;
33491;SDS011;20010;51.488;7.232;2022-08-19T14:48:53;9.07;;;8.15;;
33491;SDS011;20010;51.488;7.232;2022-08-19T14:51:22;9.80;;;8.95;;
33491;SDS011;20010;51.488;7.232;2022-08-19T14:53:50;10.32;;;9.32;;
33491;SDS011;20010;51.488;7.232;2022-08-19T14:56:19;9.05;;;8.18;;
33491;SDS011;20010;51.488;7.232;2022-08-19T14:58:48;9.35;;;8.63;;
33491;SDS011;20010;51.488;7.232;2022-08-19T15:03:46;9.48;;;8.77;;
33491;SDS011;20010;51.488;7.232;2022-08-19T15:06:14;9.18;;;8.48;;
33491;SDS011;20010;51.488;7.232;2022-08-19T15:08:42;8.88;;;8.27;;
33491;SDS011;20010;51.488;7.232;2022-08-19T15:11:12;9.05;;;8.25;;
33491;SDS011;20010;51.488;7.232;2022-08-19T15:13:42;9.05;;;7.97;;
33491;SDS011;20010;51.488;7.232;2022-08-19T15:16:10;9.40;;;8.48;;
33491;SDS011;20010;51.488;7.232;2022-08-19T15:18:43;9.75;;;9.05;;
33491;SDS011;20010;51.488;7.232;2022-08-19T15:21:12;10.68;;;9.57;;
33491;SDS011;20010;51.488;7.232;2022-08-19T15:23:52;9.68;;;8.70;;
33491;SDS011;20010;51.488;7.232;2022-08-19T15:26:20;9.88;;;8.88;;
33491;SDS011;20010;51.488;7.232;2022-08-19T15:28:47;9.43;;;8.73;;
33491;SDS011;20010;51.488;7.232;2022-08-19T15:31:16;9.18;;;8.32;;
33491;SDS011;20010;51.488;7.232;2022-08-19T15:33:54;10.05;;;9.15;;